createdAt,value
2023-06-04T00:00:06.942Z,9.63
2023-06-04T00:03:08.730Z,9.97
2023-06-04T00:06:10.563Z,9.40
2023-06-04T00:09:12.202Z,9.63
2023-06-04T00:12:14.080Z,9.20
2023-06-04T00:15:17.479Z,9.37
2023-06-04T00:18:19.151Z,9.70
2023-06-04T00:21:21.245Z,9.70
2023-06-04T00:24:23.147Z,9.47
2023-06-04T00:27:24.861Z,10.03
2023-06-04T00:30:26.905Z,9.40
2023-06-04T00:33:28.613Z,9.13
2023-06-04T00:36:30.403Z,9.23
2023-06-04T00:39:32.034Z,9.60
2023-06-04T00:42:33.899Z,9.07
2023-06-04T00:45:35.940Z,10.13
2023-06-04T00:48:38.072Z,9.73
2023-06-04T00:51:39.769Z,9.97
2023-06-04T00:54:41.905Z,9.73
2023-06-04T00:57:44.033Z,9.20
2023-06-04T01:00:46.264Z,9.33
2023-06-04T01:03:51.087Z,9.37
2023-06-04T01:06:54.457Z,9.43
2023-06-04T01:09:56.575Z,9.43
2023-06-04T01:12:58.250Z,8.27
2023-06-04T01:16:00.951Z,9.03
2023-06-04T01:19:03.650Z,8.70
2023-06-04T01:22:10.017Z,9.00
2023-06-04T01:25:27.055Z,8.77
2023-06-04T01:28:28.809Z,8.83
2023-06-04T01:31:34.026Z,8.40
2023-06-04T01:34:45.087Z,8.43
2023-06-04T01:37:47.238Z,8.30
2023-06-04T01:40:48.989Z,8.87
2023-06-04T01:43:50.848Z,8.13
2023-06-04T01:46:52.665Z,8.50
2023-06-04T01:49:54.492Z,8.80
2023-06-04T01:52:56.242Z,8.57
2023-06-04T01:55:58.359Z,8.37
2023-06-04T01:59:00.137Z,8.80
2023-06-04T02:02:03.051Z,8.50
2023-06-04T02:05:08.582Z,8.80
2023-06-04T02:08:10.395Z,8.83
2023-06-04T02:11:12.003Z,8.90
2023-06-04T02:14:13.699Z,8.40
2023-06-04T02:17:17.281Z,7.97
2023-06-04T02:20:20.518Z,7.70
2023-06-04T02:23:22.489Z,8.73
2023-06-04T02:26:24.692Z,8.40
2023-06-04T02:29:26.443Z,8.70
2023-06-04T02:32:29.821Z,8.47
2023-06-04T02:35:31.910Z,8.37
2023-06-04T02:38:34.548Z,9.33
2023-06-04T02:41:36.670Z,9.30
2023-06-04T02:44:38.401Z,8.40
2023-06-04T02:47:40.258Z,8.13
2023-06-04T02:50:43.543Z,8.20
2023-06-04T02:53:46.529Z,8.43
2023-06-04T02:56:50.254Z,8.23
2023-06-04T02:59:53.157Z,8.60
2023-06-04T03:03:02.252Z,8.33
2023-06-04T03:06:06.031Z,8.20
2023-06-04T03:09:08.300Z,8.13
2023-06-04T03:12:10.115Z,9.23
2023-06-04T03:15:12.644Z,7.83
2023-06-04T03:18:14.446Z,8.27
2023-06-04T03:21:16.166Z,8.13
2023-06-04T03:24:17.783Z,9.43
2023-06-04T03:27:19.469Z,8.60
2023-06-04T03:30:21.277Z,8.80
2023-06-04T03:33:37.780Z,8.13
2023-06-04T03:36:39.700Z,8.10
2023-06-04T03:39:42.498Z,8.30
2023-06-04T03:42:46.954Z,7.97
2023-06-04T03:45:50.109Z,8.07
2023-06-04T03:48:52.541Z,7.87
2023-06-04T03:51:54.553Z,8.10
2023-06-04T03:54:57.325Z,7.70
2023-06-04T03:57:59.675Z,7.40
2023-06-04T04:01:02.694Z,8.27
2023-06-04T04:04:05.300Z,7.90
2023-06-04T04:07:07.153Z,8.20
2023-06-04T04:10:09.730Z,7.50
2023-06-04T04:13:14.484Z,8.00
2023-06-04T04:16:17.042Z,8.67
2023-06-04T04:19:19.032Z,7.97
2023-06-04T04:22:21.809Z,8.50
2023-06-04T04:25:23.697Z,8.90
2023-06-04T04:28:29.667Z,8.90
2023-06-04T04:31:33.348Z,9.20
2023-06-04T04:34:35.808Z,9.10
2023-06-04T04:37:39.883Z,9.53
2023-06-04T04:40:43.286Z,9.60
2023-06-04T04:43:47.553Z,9.50
2023-06-04T04:46:54.887Z,10.33
2023-06-04T04:49:56.703Z,9.97
2023-06-04T04:52:59.175Z,9.60
2023-06-04T04:56:01.456Z,9.53
2023-06-04T04:59:04.514Z,9.40
2023-06-04T05:02:06.591Z,9.50
2023-06-04T05:05:09.126Z,9.30
2023-06-04T05:08:11.001Z,8.70
2023-06-04T05:11:16.043Z,8.80
2023-06-04T05:14:19.008Z,8.90
2023-06-04T05:17:22.835Z,9.57
2023-06-04T05:20:24.738Z,8.67
2023-06-04T05:23:34.235Z,8.90
2023-06-04T05:26:38.187Z,9.30
2023-06-04T05:29:46.367Z,9.17
2023-06-04T05:32:48.730Z,9.20
2023-06-04T05:36:00.132Z,9.10
2023-06-04T05:39:07.707Z,9.47
2023-06-04T05:42:18.632Z,9.23
2023-06-04T05:45:20.970Z,9.93
2023-06-04T05:48:22.905Z,9.80
2023-06-04T05:51:24.858Z,9.50
2023-06-04T05:54:26.548Z,9.43
2023-06-04T05:57:28.433Z,9.67
2023-06-04T06:00:32.855Z,9.40
2023-06-04T06:03:34.746Z,9.83
2023-06-04T06:06:36.551Z,10.20
2023-06-04T06:09:38.662Z,10.33
2023-06-04T06:12:40.890Z,10.20
2023-06-04T06:15:43.350Z,9.60
2023-06-04T06:18:45.729Z,9.43
2023-06-04T06:21:47.590Z,9.83
2023-06-04T06:24:49.983Z,10.13
2023-06-04T06:27:52.495Z,10.03
2023-06-04T06:30:56.638Z,10.80
2023-06-04T06:33:58.289Z,9.63
2023-06-04T06:37:00.136Z,9.50
2023-06-04T06:40:01.914Z,9.00
2023-06-04T06:43:03.594Z,8.80
2023-06-04T06:46:05.355Z,9.33
2023-06-04T06:49:07.259Z,8.37
2023-06-04T06:52:09.223Z,8.90
2023-06-04T06:55:11.213Z,12.50
2023-06-04T06:58:12.971Z,9.00
2023-06-04T07:01:14.762Z,8.40
2023-06-04T07:04:17.325Z,8.70
2023-06-04T07:07:20.218Z,9.10
2023-06-04T07:10:22.002Z,8.83
2023-06-04T07:13:23.698Z,8.13
2023-06-04T07:16:25.685Z,9.07
2023-06-04T07:19:27.415Z,9.17
2023-06-04T07:22:29.041Z,8.17
2023-06-04T07:25:30.913Z,8.20
2023-06-04T07:28:33.034Z,7.10
2023-06-04T07:31:34.847Z,7.20
2023-06-04T07:34:38.171Z,7.30
2023-06-04T07:37:39.808Z,7.10
2023-06-04T07:40:41.497Z,7.23
2023-06-04T07:43:44.061Z,6.80
2023-06-04T07:46:45.843Z,6.50
2023-06-04T07:49:58.437Z,6.50
2023-06-04T07:53:03.402Z,6.83
2023-06-04T07:56:05.433Z,6.60
2023-06-04T07:59:07.191Z,6.30
2023-06-04T08:02:08.914Z,6.13
2023-06-04T08:05:11.253Z,6.03
2023-06-04T08:08:12.959Z,6.20
2023-06-04T08:11:14.910Z,6.03
2023-06-04T08:14:16.796Z,6.67
2023-06-04T08:17:18.513Z,6.27
2023-06-04T08:20:20.456Z,6.70
2023-06-04T08:23:22.179Z,6.17
2023-06-04T08:26:24.611Z,6.43
2023-06-04T08:29:26.232Z,6.33
2023-06-04T08:32:27.971Z,6.60
2023-06-04T08:35:29.888Z,6.00
2023-06-04T08:38:31.664Z,6.27
2023-06-04T08:41:33.272Z,6.90
2023-06-04T08:44:34.895Z,7.20
2023-06-04T08:47:37.652Z,6.63
2023-06-04T08:50:41.191Z,7.00
2023-06-04T08:53:43.280Z,6.67
2023-06-04T08:56:45.347Z,6.20
2023-06-04T08:59:47.844Z,6.33
2023-06-04T09:02:51.449Z,6.50
2023-06-04T09:05:53.520Z,6.20
2023-06-04T09:08:59.157Z,5.60
2023-06-04T09:12:02.776Z,5.70
2023-06-04T09:15:04.708Z,6.00
2023-06-04T09:18:06.508Z,5.77
2023-06-04T09:21:09.296Z,6.30
2023-06-04T09:24:11.178Z,6.10
2023-06-04T09:27:14.180Z,5.77
2023-06-04T09:30:15.895Z,5.87
2023-06-04T09:33:17.543Z,5.93
2023-06-04T09:36:19.355Z,5.33
2023-06-04T09:39:21.963Z,5.70
2023-06-04T09:42:23.862Z,6.50
2023-06-04T09:45:32.831Z,6.50
2023-06-04T09:48:34.608Z,5.93
2023-06-04T09:51:36.314Z,6.07
2023-06-04T09:54:38.759Z,5.27
2023-06-04T09:57:41.078Z,6.33
2023-06-04T10:00:42.863Z,5.60
2023-06-04T10:03:47.898Z,5.37
2023-06-04T10:06:49.821Z,6.23
2023-06-04T10:09:52.051Z,6.83
2023-06-04T10:13:00.760Z,7.53
2023-06-04T10:16:02.628Z,8.17
2023-06-04T10:19:05.637Z,7.90
2023-06-04T10:22:07.945Z,7.70
2023-06-04T10:25:11.159Z,8.07
2023-06-04T10:28:13.132Z,8.77
2023-06-04T10:31:16.724Z,7.83
2023-06-04T10:34:19.026Z,8.10
2023-06-04T10:37:24.407Z,8.20
2023-06-04T10:40:32.590Z,9.83
2023-06-04T10:43:34.384Z,9.17
2023-06-04T10:46:41.081Z,8.20
2023-06-04T10:49:42.907Z,8.83
2023-06-04T10:52:58.643Z,9.07
2023-06-04T10:56:00.366Z,9.47
2023-06-04T10:59:13.751Z,8.77
2023-06-04T11:02:15.660Z,9.93
2023-06-04T11:05:17.342Z,8.97
2023-06-04T11:08:29.469Z,9.50
2023-06-04T11:11:31.161Z,9.83
2023-06-04T11:14:32.869Z,9.80
2023-06-04T11:17:34.540Z,9.67
2023-06-04T11:20:36.251Z,9.30
2023-06-04T11:23:37.928Z,9.53
2023-06-04T11:26:42.914Z,9.33
2023-06-04T11:29:50.676Z,9.63
2023-06-04T11:33:00.916Z,10.23
2023-06-04T11:36:02.646Z,8.60
2023-06-04T11:39:07.378Z,8.43
2023-06-04T11:42:09.068Z,9.13
2023-06-04T11:45:11.892Z,7.80
2023-06-04T11:48:13.735Z,8.73
2023-06-04T11:51:15.586Z,8.63
2023-06-04T11:54:18.009Z,8.33
2023-06-04T11:57:19.908Z,7.80
2023-06-04T12:00:22.484Z,8.10
2023-06-04T12:03:35.220Z,7.93
2023-06-04T12:06:37.060Z,8.93
2023-06-04T12:09:41.878Z,7.60
2023-06-04T12:12:46.578Z,7.40
2023-06-04T12:15:54.530Z,7.40
2023-06-04T12:19:14.153Z,7.97
2023-06-04T12:22:15.841Z,8.27
2023-06-04T12:25:29.910Z,8.93
2023-06-04T12:28:31.606Z,9.17
2023-06-04T12:31:33.455Z,8.27
2023-06-04T12:34:38.496Z,7.73
2023-06-04T12:37:40.815Z,8.07
2023-06-04T12:40:42.500Z,8.27
2023-06-04T12:43:44.204Z,7.40
2023-06-04T12:46:46.136Z,7.70
2023-06-04T12:49:48.027Z,7.77
2023-06-04T12:52:49.841Z,7.30
2023-06-04T12:55:51.906Z,7.70
2023-06-04T12:58:53.509Z,6.67
2023-06-04T13:01:55.877Z,7.80
2023-06-04T13:04:57.931Z,6.50
2023-06-04T13:07:59.770Z,6.37
2023-06-04T13:11:01.739Z,6.30
2023-06-04T13:14:03.503Z,6.70
2023-06-04T13:17:17.991Z,4.70
2023-06-04T13:20:23.477Z,4.77
2023-06-04T13:23:31.640Z,4.77
2023-06-04T13:26:40.179Z,5.37
2023-06-04T13:29:44.467Z,5.50
2023-06-04T13:32:46.625Z,5.10
2023-06-04T13:35:48.402Z,5.13
2023-06-04T13:38:50.148Z,4.40
2023-06-04T13:41:51.852Z,5.00
2023-06-04T13:44:53.572Z,4.70
2023-06-04T13:47:55.549Z,4.70
2023-06-04T13:50:57.296Z,5.37
2023-06-04T13:53:59.982Z,5.03
2023-06-04T13:57:07.530Z,5.37
2023-06-04T14:00:10.847Z,5.70
2023-06-04T14:03:12.556Z,6.03
2023-06-04T14:06:14.260Z,7.33
2023-06-04T14:09:17.186Z,7.60
2023-06-04T14:12:19.291Z,7.87
2023-06-04T14:15:20.913Z,8.33
2023-06-04T14:18:23.662Z,7.90
2023-06-04T14:21:25.714Z,8.97
2023-06-04T14:24:27.480Z,8.03
2023-06-04T14:27:29.251Z,8.33
2023-06-04T14:30:31.145Z,8.20
2023-06-04T14:33:32.869Z,8.80
2023-06-04T14:36:34.462Z,8.10
2023-06-04T14:39:37.447Z,7.70
2023-06-04T14:42:39.209Z,7.83
2023-06-04T14:45:41.728Z,8.60
2023-06-04T14:48:43.546Z,7.20
2023-06-04T14:51:46.009Z,7.03
2023-06-04T14:54:47.639Z,6.27
2023-06-04T14:57:50.329Z,5.80
2023-06-04T15:00:52.112Z,6.70
2023-06-04T15:03:53.958Z,6.70
2023-06-04T15:06:55.668Z,11.47
2023-06-04T15:10:00.199Z,7.13
2023-06-04T15:13:05.266Z,6.57
2023-06-04T15:16:06.968Z,6.33
2023-06-04T15:19:10.043Z,6.50
2023-06-04T15:22:11.722Z,8.27
2023-06-04T15:25:13.369Z,6.70
2023-06-04T15:28:17.781Z,7.03
2023-06-04T15:31:19.481Z,7.03
2023-06-04T15:34:21.162Z,7.37
2023-06-04T15:37:22.886Z,7.30
2023-06-04T15:40:24.689Z,7.53
2023-06-04T15:43:26.428Z,7.40
2023-06-04T15:46:28.168Z,8.20
2023-06-04T15:49:30.473Z,8.73
2023-06-04T15:52:32.127Z,9.10
2023-06-04T15:55:33.826Z,8.77
2023-06-04T15:58:35.572Z,8.90
2023-06-04T16:01:37.425Z,9.07
2023-06-04T16:04:39.083Z,9.57
2023-06-04T16:07:40.793Z,9.87
2023-06-04T16:10:42.890Z,10.63
2023-06-04T16:13:44.623Z,9.33
2023-06-04T16:16:47.680Z,9.17
2023-06-04T16:19:49.521Z,9.00
2023-06-04T16:22:51.509Z,9.57
2023-06-04T16:25:53.307Z,9.10
2023-06-04T16:28:55.125Z,9.17
2023-06-04T16:31:56.806Z,9.57
2023-06-04T16:34:58.713Z,9.50
2023-06-04T16:38:01.055Z,9.40
2023-06-04T16:41:02.733Z,8.87
2023-06-04T16:44:04.361Z,9.63
2023-06-04T16:47:06.278Z,9.03
2023-06-04T16:50:08.516Z,8.77
2023-06-04T16:53:10.337Z,8.70
2023-06-04T16:56:11.974Z,8.50
2023-06-04T16:59:13.630Z,9.97
2023-06-04T17:02:15.446Z,10.60
2023-06-04T17:05:25.011Z,9.40
2023-06-04T17:08:27.382Z,9.17
2023-06-04T17:11:29.026Z,9.10
2023-06-04T17:14:30.727Z,8.93
2023-06-04T17:17:32.421Z,10.40
2023-06-04T17:20:34.185Z,10.03
2023-06-04T17:23:37.742Z,9.40
2023-06-04T17:26:39.532Z,9.57
2023-06-04T17:29:41.208Z,9.77
2023-06-04T17:32:42.945Z,8.90
2023-06-04T17:35:44.743Z,9.20
2023-06-04T17:38:49.554Z,9.13
2023-06-04T17:41:51.251Z,10.20
2023-06-04T17:44:52.865Z,9.47
2023-06-04T17:47:54.535Z,9.40
2023-06-04T17:50:56.257Z,9.80
2023-06-04T17:53:58.017Z,9.23
2023-06-04T17:56:59.715Z,9.30
2023-06-04T18:00:03.620Z,9.10
2023-06-04T18:03:13.663Z,9.67
2023-06-04T18:06:15.351Z,10.20
2023-06-04T18:09:17.139Z,10.37
2023-06-04T18:12:18.782Z,10.40
2023-06-04T18:15:20.620Z,11.50
2023-06-04T18:18:22.684Z,11.03
2023-06-04T18:21:24.314Z,10.13
2023-06-04T18:24:27.398Z,9.60
2023-06-04T18:27:29.084Z,10.13
2023-06-04T18:30:30.849Z,9.73
2023-06-04T18:33:32.844Z,9.40
2023-06-04T18:36:34.662Z,9.83
2023-06-04T18:39:36.289Z,10.20
2023-06-04T18:42:37.997Z,10.03
2023-06-04T18:45:39.690Z,9.27
2023-06-04T18:48:41.680Z,9.70
2023-06-04T18:51:43.384Z,9.57
2023-06-04T18:54:45.753Z,10.17
2023-06-04T18:57:47.913Z,9.93
2023-06-04T19:00:49.634Z,9.60
2023-06-04T19:03:51.470Z,9.80
2023-06-04T19:06:53.267Z,9.67
2023-06-04T19:09:55.338Z,9.47
2023-06-04T19:12:57.030Z,10.07
2023-06-04T19:15:58.740Z,10.13
2023-06-04T19:19:00.449Z,9.97
2023-06-04T19:22:02.140Z,10.50
2023-06-04T19:25:04.002Z,9.73
2023-06-04T19:28:06.407Z,8.80
2023-06-04T19:31:08.840Z,10.63
2023-06-04T19:34:10.758Z,9.47
2023-06-04T19:37:12.458Z,8.10
2023-06-04T19:40:18.205Z,8.90
2023-06-04T19:43:21.308Z,9.47
2023-06-04T19:46:23.191Z,10.07
2023-06-04T19:49:24.846Z,9.80
2023-06-04T19:52:27.546Z,10.30
2023-06-04T19:55:29.472Z,9.43
2023-06-04T19:58:31.335Z,9.63
2023-06-04T20:01:34.157Z,9.10
2023-06-04T20:04:38.967Z,9.47
2023-06-04T20:07:40.659Z,10.00
2023-06-04T20:10:42.378Z,9.90
2023-06-04T20:13:44.017Z,10.43
2023-06-04T20:16:46.039Z,10.80
2023-06-04T20:19:49.018Z,10.73
2023-06-04T20:22:50.907Z,9.70
2023-06-04T20:25:52.619Z,10.50
2023-06-04T20:28:56.079Z,10.07
2023-06-04T20:31:57.716Z,9.70
2023-06-04T20:34:59.380Z,10.37
2023-06-04T20:38:03.878Z,9.73
2023-06-04T20:41:05.822Z,9.63
2023-06-04T20:44:07.669Z,9.10
2023-06-04T20:47:09.355Z,8.67
2023-06-04T20:50:11.626Z,8.57
2023-06-04T20:53:13.301Z,8.53
2023-06-04T20:56:15.640Z,9.23
2023-06-04T20:59:17.286Z,9.50
2023-06-04T21:02:18.956Z,9.53
2023-06-04T21:05:20.871Z,9.50
2023-06-04T21:08:26.026Z,9.17
2023-06-04T21:11:28.065Z,10.07
2023-06-04T21:14:29.747Z,9.60
2023-06-04T21:17:31.390Z,9.93
2023-06-04T21:20:33.087Z,9.90
2023-06-04T21:23:34.795Z,8.40
2023-06-04T21:26:36.506Z,8.67
2023-06-04T21:29:38.117Z,8.30
2023-06-04T21:32:40.077Z,7.43
2023-06-04T21:35:41.790Z,6.50
2023-06-04T21:38:43.495Z,6.90
2023-06-04T21:41:45.102Z,7.47
2023-06-04T21:44:46.728Z,6.97
2023-06-04T21:47:50.150Z,6.00
2023-06-04T21:50:51.832Z,5.93
2023-06-04T21:53:53.602Z,5.70
2023-06-04T21:56:55.211Z,6.23
2023-06-04T21:59:56.907Z,6.10
2023-06-04T22:02:58.729Z,6.27
2023-06-04T22:06:00.494Z,7.13
2023-06-04T22:09:02.183Z,7.77
2023-06-04T22:12:03.935Z,8.20
2023-06-04T22:15:06.030Z,7.80
2023-06-04T22:18:07.808Z,8.97
2023-06-04T22:21:09.672Z,8.17
2023-06-04T22:24:11.486Z,7.73
2023-06-04T22:27:13.120Z,8.27
2023-06-04T22:30:15.016Z,9.00
2023-06-04T22:33:16.765Z,8.30
2023-06-04T22:36:18.508Z,7.60
2023-06-04T22:39:20.649Z,7.80
2023-06-04T22:42:22.290Z,7.00
2023-06-04T22:45:24.046Z,6.97
2023-06-04T22:48:25.797Z,8.20
2023-06-04T22:51:27.631Z,8.07
2023-06-04T22:54:29.308Z,8.17
2023-06-04T22:57:31.373Z,8.73
2023-06-04T23:00:33.249Z,9.10
2023-06-04T23:03:35.116Z,8.40
2023-06-04T23:06:37.735Z,8.20
2023-06-04T23:09:39.376Z,8.40
2023-06-04T23:12:41.132Z,9.03
2023-06-04T23:15:42.951Z,9.23
2023-06-04T23:18:44.657Z,9.00
2023-06-04T23:21:46.409Z,8.87
2023-06-04T23:24:48.270Z,8.50
2023-06-04T23:27:49.968Z,8.10
2023-06-04T23:30:51.725Z,9.37
2023-06-04T23:33:53.659Z,9.20
2023-06-04T23:36:55.518Z,8.97
2023-06-04T23:39:57.215Z,8.63
2023-06-04T23:42:58.896Z,9.60
2023-06-04T23:46:00.635Z,7.80
2023-06-04T23:49:02.345Z,7.80
2023-06-04T23:52:04.095Z,6.67
2023-06-04T23:55:06.002Z,6.97
2023-06-04T23:58:07.713Z,6.23
